createdAt,value
2024-02-18T00:00:25.837Z,97679.50
2024-02-18T00:02:54.442Z,97670.06
2024-02-18T00:05:22.511Z,97680.63
2024-02-18T00:07:50.604Z,97684.28
2024-02-18T00:10:17.590Z,97680.97
2024-02-18T00:12:44.576Z,97681.81
2024-02-18T00:15:11.482Z,97689.06
2024-02-18T00:17:38.126Z,97681.16
2024-02-18T00:20:06.548Z,97679.47
2024-02-18T00:22:40.719Z,97681.16
2024-02-18T00:25:08.865Z,97683.03
2024-02-18T00:27:35.823Z,97680.47
2024-02-18T00:30:04.304Z,97684.00
2024-02-18T00:32:33.237Z,97677.19
2024-02-18T00:35:02.266Z,97672.00
2024-02-18T00:37:29.042Z,97668.81
2024-02-18T00:39:56.106Z,97684.53
2024-02-18T00:42:23.253Z,97688.00
2024-02-18T00:44:50.461Z,97674.06
2024-02-18T00:47:17.489Z,97687.31
2024-02-18T00:49:44.295Z,97682.31
2024-02-18T00:52:11.611Z,97681.13
2024-02-18T00:54:38.868Z,97678.66
2024-02-18T00:57:05.661Z,97674.91
2024-02-18T00:59:35.052Z,97676.03
2024-02-18T01:02:02.378Z,97677.16
2024-02-18T01:04:29.486Z,97669.50
2024-02-18T01:06:56.198Z,97672.91
2024-02-18T01:09:22.991Z,97673.19
2024-02-18T01:11:50.112Z,97677.34
2024-02-18T01:14:17.767Z,97675.72
2024-02-18T01:16:44.700Z,97681.09
2024-02-18T01:19:11.694Z,97688.22
2024-02-18T01:21:39.795Z,97679.06
2024-02-18T01:24:08.538Z,97676.19
2024-02-18T01:26:39.130Z,97685.56
2024-02-18T01:29:07.371Z,97686.91
2024-02-18T01:31:34.142Z,97697.63
2024-02-18T01:34:02.054Z,97692.19
2024-02-18T01:36:29.995Z,97685.41
2024-02-18T01:38:57.630Z,97692.09
2024-02-18T01:41:25.349Z,97687.69
2024-02-18T01:43:58.308Z,97688.44
2024-02-18T01:46:26.601Z,97684.13
2024-02-18T01:48:56.216Z,97691.75
2024-02-18T01:51:24.242Z,97692.69
2024-02-18T01:53:54.242Z,97697.44
2024-02-18T01:56:23.247Z,97701.13
2024-02-18T01:58:52.825Z,97685.56
2024-02-18T02:01:22.756Z,97698.28
2024-02-18T02:03:53.189Z,97693.44
2024-02-18T02:06:22.563Z,97706.69
2024-02-18T02:08:50.267Z,97705.56
2024-02-18T02:11:18.030Z,97706.28
2024-02-18T02:13:46.733Z,97700.50
2024-02-18T02:16:13.553Z,97697.72
2024-02-18T02:18:40.492Z,97695.03
2024-02-18T02:21:07.313Z,97700.13
2024-02-18T02:23:36.258Z,97699.97
2024-02-18T02:26:03.401Z,97691.47
2024-02-18T02:28:38.197Z,97702.63
2024-02-18T02:31:05.390Z,97708.00
2024-02-18T02:33:32.241Z,97698.78
2024-02-18T02:35:58.971Z,97696.25
2024-02-18T02:38:25.786Z,97694.88
2024-02-18T02:40:52.522Z,97685.38
2024-02-18T02:43:19.640Z,97694.59
2024-02-18T02:45:47.694Z,97686.44
2024-02-18T02:48:15.823Z,97693.00
2024-02-18T02:50:42.578Z,97699.03
2024-02-18T02:53:11.403Z,97702.41
2024-02-18T02:55:38.378Z,97704.22
2024-02-18T02:58:09.287Z,97711.19
2024-02-18T03:00:36.331Z,97703.16
2024-02-18T03:03:04.462Z,97706.72
2024-02-18T03:05:33.145Z,97709.75
2024-02-18T03:08:01.007Z,97716.75
2024-02-18T03:10:28.000Z,97715.22
2024-02-18T03:12:54.997Z,97710.75
2024-02-18T03:15:22.126Z,97708.84
2024-02-18T03:17:49.367Z,97716.22
2024-02-18T03:20:17.466Z,97724.44
2024-02-18T03:22:45.613Z,97714.22
2024-02-18T03:25:12.482Z,97717.84
2024-02-18T03:27:39.425Z,97715.16
2024-02-18T03:30:06.972Z,97718.38
2024-02-18T03:32:36.836Z,97718.53
2024-02-18T03:35:07.913Z,97699.50
2024-02-18T03:37:35.212Z,97706.03
2024-02-18T03:40:06.292Z,97709.50
2024-02-18T03:42:35.204Z,97718.38
2024-02-18T03:45:05.516Z,97718.25
2024-02-18T03:47:32.599Z,97714.28
2024-02-18T03:49:59.674Z,97714.63
2024-02-18T03:52:26.901Z,97717.41
2024-02-18T03:54:53.576Z,97716.66
2024-02-18T03:57:20.669Z,97705.84
2024-02-18T03:59:47.346Z,97716.53
2024-02-18T04:02:13.976Z,97716.53
2024-02-18T04:04:40.707Z,97723.50
2024-02-18T04:07:09.737Z,97714.91
2024-02-18T04:09:36.529Z,97718.06
2024-02-18T04:12:04.669Z,97710.34
2024-02-18T04:14:31.310Z,97715.69
2024-02-18T04:16:58.355Z,97714.06
2024-02-18T04:19:25.092Z,97713.97
2024-02-18T04:21:54.244Z,97723.56
2024-02-18T04:24:23.234Z,97722.84
2024-02-18T04:26:50.286Z,97732.44
2024-02-18T04:29:19.986Z,97725.47
2024-02-18T04:31:48.081Z,97734.88
2024-02-18T04:34:14.923Z,97715.03
2024-02-18T04:36:50.186Z,97724.66
2024-02-18T04:39:18.382Z,97721.44
2024-02-18T04:41:45.175Z,97719.56
2024-02-18T04:44:13.080Z,97720.94
2024-02-18T04:46:39.898Z,97712.22
2024-02-18T04:49:09.080Z,97715.38
2024-02-18T04:51:36.029Z,97710.44
2024-02-18T04:54:02.790Z,97720.00
2024-02-18T04:56:31.924Z,97711.22
2024-02-18T04:58:58.613Z,97707.94
2024-02-18T05:01:28.085Z,97710.97
2024-02-18T05:03:56.025Z,97706.16
2024-02-18T05:06:22.845Z,97715.69
2024-02-18T05:08:49.538Z,97719.34
2024-02-18T05:11:19.779Z,97713.94
2024-02-18T05:13:47.737Z,97720.91
2024-02-18T05:16:16.453Z,97725.69
2024-02-18T05:18:49.439Z,97722.00
2024-02-18T05:21:18.988Z,97703.38
2024-02-18T05:23:45.651Z,97721.16
2024-02-18T05:26:12.441Z,97706.56
2024-02-18T05:28:42.169Z,97716.06
2024-02-18T05:31:28.819Z,97712.59
2024-02-18T05:33:56.583Z,97708.78
2024-02-18T05:36:23.555Z,97719.88
2024-02-18T05:38:51.251Z,97720.03
2024-02-18T05:41:18.136Z,97722.38
2024-02-18T05:43:45.428Z,97733.38
2024-02-18T05:46:12.767Z,97746.19
2024-02-18T05:48:40.581Z,97739.44
2024-02-18T05:51:10.677Z,97742.97
2024-02-18T05:53:38.371Z,97745.69
2024-02-18T05:56:08.061Z,97748.22
2024-02-18T05:58:34.942Z,97755.81
2024-02-18T06:01:02.430Z,97755.88
2024-02-18T06:03:29.908Z,97761.13
2024-02-18T06:05:56.874Z,97759.00
2024-02-18T06:08:29.825Z,97756.97
2024-02-18T06:11:01.722Z,97756.13
2024-02-18T06:13:30.478Z,97767.66
2024-02-18T06:15:58.480Z,97765.50
2024-02-18T06:18:30.186Z,97761.66
2024-02-18T06:21:00.182Z,97757.00
2024-02-18T06:23:28.160Z,97759.16
2024-02-18T06:25:58.178Z,97756.03
2024-02-18T06:28:33.404Z,97755.84
2024-02-18T06:31:05.085Z,97763.72
2024-02-18T06:33:34.535Z,97766.28
2024-02-18T06:36:01.381Z,97772.25
2024-02-18T06:38:29.124Z,97766.59
2024-02-18T06:40:56.265Z,97766.25
2024-02-18T06:43:24.329Z,97764.84
2024-02-18T06:45:55.315Z,97759.84
2024-02-18T06:48:23.686Z,97758.38
2024-02-18T06:50:54.533Z,97754.78
2024-02-18T06:53:23.539Z,97758.94
2024-02-18T06:55:50.492Z,97761.97
2024-02-18T06:58:18.053Z,97752.94
2024-02-18T07:00:44.881Z,97758.75
2024-02-18T07:03:12.130Z,97768.41
2024-02-18T07:05:38.858Z,97774.28
2024-02-18T07:08:07.566Z,97769.94
2024-02-18T07:10:36.019Z,97774.34
2024-02-18T07:13:02.906Z,97776.06
2024-02-18T07:15:30.555Z,97771.50
2024-02-18T07:17:57.371Z,97773.50
2024-02-18T07:20:24.095Z,97771.28
2024-02-18T07:22:52.001Z,97773.28
2024-02-18T07:25:21.701Z,97767.31
2024-02-18T07:27:49.454Z,97768.13
2024-02-18T07:30:16.515Z,97765.13
2024-02-18T07:32:44.392Z,97765.34
2024-02-18T07:35:11.212Z,97767.41
2024-02-18T07:37:38.098Z,97756.56
2024-02-18T07:40:06.738Z,97757.50
2024-02-18T07:42:35.597Z,97754.09
2024-02-18T07:45:05.401Z,97763.84
2024-02-18T07:47:33.494Z,97754.91
2024-02-18T07:50:02.615Z,97754.09
2024-02-18T07:52:35.229Z,97750.16
2024-02-18T07:55:02.241Z,97745.47
2024-02-18T07:57:31.698Z,97745.69
2024-02-18T07:59:58.458Z,97754.84
2024-02-18T08:02:28.164Z,97754.47
2024-02-18T08:04:58.092Z,97747.94
2024-02-18T08:07:26.548Z,97742.81
2024-02-18T08:09:53.374Z,97736.38
2024-02-18T08:12:23.759Z,97730.94
2024-02-18T08:14:50.575Z,97727.56
2024-02-18T08:17:17.399Z,97727.84
2024-02-18T08:19:48.085Z,97727.66
2024-02-18T08:22:15.516Z,97730.09
2024-02-18T08:24:43.990Z,97723.81
2024-02-18T08:27:11.604Z,97730.94
2024-02-18T08:29:41.203Z,97728.78
2024-02-18T08:32:09.041Z,97732.41
2024-02-18T08:34:43.389Z,97732.72
2024-02-18T08:37:11.046Z,97725.09
2024-02-18T08:39:37.902Z,97722.88
2024-02-18T08:42:06.336Z,97723.81
2024-02-18T08:44:32.967Z,97721.72
2024-02-18T08:46:59.810Z,97713.34
2024-02-18T08:49:26.493Z,97714.59
2024-02-18T08:51:53.339Z,97715.13
2024-02-18T08:54:20.194Z,97717.91
2024-02-18T08:56:47.004Z,97715.97
2024-02-18T08:59:13.731Z,97718.16
2024-02-18T09:01:44.590Z,97717.06
2024-02-18T09:04:11.559Z,97717.03
2024-02-18T09:06:38.655Z,97717.50
2024-02-18T09:09:06.470Z,97713.97
2024-02-18T09:11:38.170Z,97704.53
2024-02-18T09:14:05.820Z,97698.19
2024-02-18T09:16:32.534Z,97693.59
2024-02-18T09:18:59.305Z,97695.56
2024-02-18T09:21:26.273Z,97686.91
2024-02-18T09:23:52.994Z,97681.47
2024-02-18T09:26:21.805Z,97680.09
2024-02-18T09:28:49.384Z,97676.28
2024-02-18T09:31:28.474Z,97670.28
2024-02-18T09:33:57.286Z,97662.59
2024-02-18T09:36:28.235Z,97654.75
2024-02-18T09:38:56.083Z,97650.66
2024-02-18T09:41:30.750Z,97646.75
2024-02-18T09:44:07.260Z,97625.34
2024-02-18T09:46:43.860Z,97624.50
2024-02-18T09:49:30.139Z,97615.22
2024-02-18T09:51:58.597Z,97610.13
2024-02-18T09:54:30.831Z,97612.53
2024-02-18T09:57:05.258Z,97609.00
2024-02-18T09:59:32.135Z,97603.31
2024-02-18T10:02:00.565Z,97605.34
2024-02-18T10:04:27.531Z,97606.31
2024-02-18T10:06:55.810Z,97603.81
2024-02-18T10:09:25.339Z,97597.25
2024-02-18T10:11:53.548Z,97587.03
2024-02-18T10:14:24.754Z,97584.81
2024-02-18T10:16:51.553Z,97583.13
2024-02-18T10:19:18.473Z,97578.72
2024-02-18T10:21:45.667Z,97579.63
2024-02-18T10:24:13.669Z,97581.59
2024-02-18T10:26:40.460Z,97577.06
2024-02-18T10:29:07.602Z,97574.78
2024-02-18T10:31:34.496Z,97567.50
2024-02-18T10:34:01.645Z,97559.25
2024-02-18T10:36:32.628Z,97553.00
2024-02-18T10:39:05.408Z,97558.31
2024-02-18T10:41:41.838Z,97548.16
2024-02-18T10:44:18.356Z,97555.41
2024-02-18T10:46:49.585Z,97547.31
2024-02-18T10:49:52.452Z,97540.19
2024-02-18T10:52:56.303Z,97537.03
2024-02-18T10:55:33.964Z,97542.19
2024-02-18T10:58:33.366Z,97526.56
2024-02-18T11:01:05.214Z,97521.63
2024-02-18T11:03:51.028Z,97517.19
2024-02-18T11:06:20.129Z,97519.09
2024-02-18T11:08:52.683Z,97511.94
2024-02-18T11:11:22.454Z,97514.38
2024-02-18T11:13:53.897Z,97500.97
2024-02-18T11:16:24.920Z,97500.66
2024-02-18T11:18:55.226Z,97501.72
2024-02-18T11:21:25.884Z,97496.69
2024-02-18T11:23:57.612Z,97499.75
2024-02-18T11:26:24.782Z,97492.03
2024-02-18T11:28:53.787Z,97498.81
2024-02-18T11:31:28.506Z,97493.28
2024-02-18T11:33:55.789Z,97484.28
2024-02-18T11:36:25.427Z,97486.56
2024-02-18T11:38:55.820Z,97484.19
2024-02-18T11:41:34.072Z,97480.97
2024-02-18T11:44:06.856Z,97476.03
2024-02-18T11:46:33.886Z,97471.56
2024-02-18T11:49:01.419Z,97470.84
2024-02-18T11:51:29.130Z,97463.97
2024-02-18T11:53:58.158Z,97469.94
2024-02-18T11:56:24.973Z,97461.22
2024-02-18T11:58:52.246Z,97464.19
2024-02-18T12:01:25.399Z,97453.34
2024-02-18T12:03:52.639Z,97446.38
2024-02-18T12:06:20.404Z,97445.16
2024-02-18T12:08:48.653Z,97439.69
2024-02-18T12:11:17.961Z,97442.59
2024-02-18T12:13:45.024Z,97441.84
2024-02-18T12:16:12.478Z,97426.88
2024-02-18T12:18:39.952Z,97433.25
2024-02-18T12:21:08.562Z,97426.84
2024-02-18T12:23:44.276Z,97427.81
2024-02-18T12:26:11.835Z,97432.47
2024-02-18T12:28:39.865Z,97433.47
2024-02-18T12:31:09.794Z,97420.69
2024-02-18T12:33:39.116Z,97416.16
2024-02-18T12:36:09.290Z,97411.75
2024-02-18T12:38:38.546Z,97409.88
2024-02-18T12:41:11.000Z,97403.56
2024-02-18T12:44:11.270Z,97402.34
2024-02-18T12:46:24.698Z,97401.94
2024-02-18T12:48:58.685Z,97407.53
2024-02-18T12:51:26.847Z,97396.59
2024-02-18T12:53:55.766Z,97395.66
2024-02-18T12:56:22.554Z,97391.53
2024-02-18T12:58:52.724Z,97387.38
2024-02-18T13:01:20.959Z,97384.34
2024-02-18T13:06:24.147Z,97380.88
2024-02-18T13:08:51.257Z,97371.38
2024-02-18T13:11:20.054Z,97362.97
2024-02-18T13:13:55.046Z,97354.81
2024-02-18T13:16:24.333Z,97359.78
2024-02-18T13:18:51.120Z,97357.47
2024-02-18T13:21:17.925Z,97354.44
2024-02-18T13:23:44.619Z,97357.25
2024-02-18T13:26:11.567Z,97361.47
2024-02-18T13:28:38.540Z,97353.47
2024-02-18T13:31:09.694Z,97349.94
2024-02-18T13:33:36.868Z,97351.22
2024-02-18T13:36:03.740Z,97340.97
2024-02-18T13:38:31.293Z,97340.31
2024-02-18T13:40:58.006Z,97328.75
2024-02-18T13:43:25.010Z,97344.75
2024-02-18T13:45:51.955Z,97332.94
2024-02-18T13:48:18.786Z,97327.31
2024-02-18T13:50:46.369Z,97317.06
2024-02-18T13:53:15.501Z,97314.91
2024-02-18T13:55:42.226Z,97314.63
2024-02-18T13:58:09.275Z,97322.91
2024-02-18T14:00:37.692Z,97319.97
2024-02-18T14:03:05.584Z,97313.47
2024-02-18T14:05:36.213Z,97310.22
2024-02-18T14:08:03.076Z,97313.19
2024-02-18T14:10:29.935Z,97308.28
2024-02-18T14:12:56.748Z,97300.56
2024-02-18T14:15:25.473Z,97311.34
2024-02-18T14:17:59.762Z,97309.06
2024-02-18T14:20:26.745Z,97310.94
2024-02-18T14:22:54.587Z,97306.88
2024-02-18T14:25:22.363Z,97301.47
2024-02-18T14:27:52.404Z,97294.66
2024-02-18T14:30:20.250Z,97288.53
2024-02-18T14:32:51.494Z,97280.69
2024-02-18T14:35:18.512Z,97278.63
2024-02-18T14:37:45.381Z,97279.47
2024-02-18T14:40:18.041Z,97276.94
2024-02-18T14:42:50.408Z,97275.38
2024-02-18T14:45:18.811Z,97275.25
2024-02-18T14:47:47.058Z,97293.56
2024-02-18T14:50:15.113Z,97282.06
2024-02-18T14:52:45.339Z,97289.34
2024-02-18T14:55:12.170Z,97290.34
2024-02-18T14:57:46.278Z,97286.72
2024-02-18T15:00:18.621Z,97290.53
2024-02-18T15:02:46.514Z,97287.75
2024-02-18T15:05:13.540Z,97287.19
2024-02-18T15:07:40.663Z,97292.50
2024-02-18T15:10:08.108Z,97292.09
2024-02-18T15:12:35.069Z,97286.50
2024-02-18T15:15:01.749Z,97292.69
2024-02-18T15:17:28.613Z,97287.66
2024-02-18T15:19:57.231Z,97290.16
2024-02-18T15:22:24.534Z,97288.47
2024-02-18T15:24:51.321Z,97290.44
2024-02-18T15:27:18.319Z,97283.56
2024-02-18T15:29:45.040Z,97278.09
2024-02-18T15:32:13.907Z,97277.53
2024-02-18T15:34:40.764Z,97283.56
2024-02-18T15:37:08.793Z,97268.84
2024-02-18T15:39:35.756Z,97271.22
2024-02-18T15:42:02.574Z,97276.38
2024-02-18T15:44:29.295Z,97270.09
2024-02-18T15:46:58.520Z,97272.47
2024-02-18T15:49:27.469Z,97266.31
2024-02-18T15:51:56.937Z,97265.44
2024-02-18T15:54:23.628Z,97262.00
2024-02-18T15:56:54.026Z,97255.84
2024-02-18T15:59:24.908Z,97254.00
2024-02-18T16:01:54.163Z,97261.09
2024-02-18T16:04:22.492Z,97253.50
2024-02-18T16:06:49.383Z,97249.66
2024-02-18T16:09:16.267Z,97256.50
2024-02-18T16:11:43.052Z,97253.66
2024-02-18T16:14:12.705Z,97255.88
2024-02-18T16:16:40.429Z,97243.22
2024-02-18T16:19:08.403Z,97245.94
2024-02-18T16:21:35.981Z,97246.69
2024-02-18T16:24:02.849Z,97245.66
2024-02-18T16:26:30.517Z,97250.28
2024-02-18T16:28:59.336Z,97250.22
2024-02-18T16:31:26.225Z,97247.63
2024-02-18T16:33:53.216Z,97245.22
2024-02-18T16:36:20.031Z,97244.66
2024-02-18T16:38:46.889Z,97243.44
2024-02-18T16:41:13.614Z,97255.19
2024-02-18T16:43:40.350Z,97253.75
2024-02-18T16:46:08.121Z,97245.81
2024-02-18T16:48:37.478Z,97245.47
2024-02-18T16:51:04.695Z,97247.06
2024-02-18T16:53:31.471Z,97246.19
2024-02-18T16:55:58.582Z,97249.25
2024-02-18T16:58:25.931Z,97238.63
2024-02-18T17:00:52.793Z,97246.59
2024-02-18T17:03:19.731Z,97239.47
2024-02-18T17:05:46.421Z,97250.94
2024-02-18T17:08:14.393Z,97256.75
2024-02-18T17:10:41.261Z,97259.16
2024-02-18T17:13:11.196Z,97258.78
2024-02-18T17:15:39.002Z,97254.56
2024-02-18T17:18:11.191Z,97250.34
2024-02-18T17:20:38.287Z,97250.22
2024-02-18T17:23:07.115Z,97241.53
2024-02-18T17:25:34.002Z,97243.72
2024-02-18T17:28:03.753Z,97239.38
2024-02-18T17:30:31.154Z,97242.84
2024-02-18T17:32:58.490Z,97242.63
2024-02-18T17:35:25.449Z,97237.56
2024-02-18T17:37:53.234Z,97228.53
2024-02-18T17:40:22.687Z,97227.94
2024-02-18T17:42:51.215Z,97233.59
2024-02-18T17:45:20.261Z,97220.81
2024-02-18T17:47:47.163Z,97223.59
2024-02-18T17:50:15.002Z,97226.13
2024-02-18T17:52:41.922Z,97219.50
2024-02-18T17:55:15.365Z,97220.22
2024-02-18T17:57:44.822Z,97213.97
2024-02-18T18:00:13.763Z,97212.53
2024-02-18T18:02:41.022Z,97214.31
2024-02-18T18:05:09.537Z,97213.59
2024-02-18T18:07:40.052Z,97216.63
2024-02-18T18:10:07.625Z,97211.56
2024-02-18T18:12:35.508Z,97206.53
2024-02-18T18:15:05.107Z,97201.34
2024-02-18T18:17:33.533Z,97205.66
2024-02-18T18:20:00.414Z,97203.25
2024-02-18T18:22:27.716Z,97204.09
2024-02-18T18:24:54.389Z,97199.28
2024-02-18T18:27:21.280Z,97206.03
2024-02-18T18:29:48.868Z,97194.34
2024-02-18T18:32:17.016Z,97204.47
2024-02-18T18:34:44.041Z,97202.31
2024-02-18T18:37:13.575Z,97196.53
2024-02-18T18:39:42.163Z,97199.75
2024-02-18T18:42:09.163Z,97203.97
2024-02-18T18:44:38.871Z,97202.06
2024-02-18T18:47:08.825Z,97193.97
2024-02-18T18:49:36.798Z,97187.38
2024-02-18T18:52:03.935Z,97187.25
2024-02-18T18:54:32.530Z,97188.34
2024-02-18T18:57:00.211Z,97176.53
2024-02-18T18:59:28.881Z,97174.22
2024-02-18T19:01:59.351Z,97171.31
2024-02-18T19:04:27.650Z,97166.16
2024-02-18T19:06:56.571Z,97160.16
2024-02-18T19:09:23.648Z,97159.69
2024-02-18T19:11:50.469Z,97146.31
2024-02-18T19:14:20.370Z,97145.22
2024-02-18T19:16:48.026Z,97143.53
2024-02-18T19:19:16.759Z,97138.34
2024-02-18T19:21:45.600Z,97140.41
2024-02-18T19:24:12.431Z,97137.91
2024-02-18T19:26:39.655Z,97137.56
2024-02-18T19:29:08.529Z,97130.44
2024-02-18T19:31:36.452Z,97130.09
2024-02-18T19:34:12.332Z,97123.34
2024-02-18T19:36:42.424Z,97124.44
2024-02-18T19:39:12.568Z,97121.06
2024-02-18T19:41:43.664Z,97116.97
2024-02-18T19:44:11.478Z,97118.06
2024-02-18T19:46:47.818Z,97123.34
2024-02-18T19:49:17.467Z,97116.50
2024-02-18T19:51:50.673Z,97111.31
2024-02-18T19:54:17.384Z,97109.88
2024-02-18T19:56:44.364Z,97107.69
2024-02-18T19:59:12.358Z,97115.63
2024-02-18T20:01:39.310Z,97106.34
2024-02-18T20:04:06.413Z,97112.34
2024-02-18T20:06:33.402Z,97105.50
2024-02-18T20:09:00.292Z,97110.97
2024-02-18T20:11:30.795Z,97120.97
2024-02-18T20:13:58.370Z,97113.72
2024-02-18T20:16:25.473Z,97111.91
2024-02-18T20:18:52.545Z,97103.16
2024-02-18T20:21:20.423Z,97103.41
2024-02-18T20:23:47.506Z,97103.59
2024-02-18T20:26:20.561Z,97100.50
2024-02-18T20:28:50.414Z,97105.25
2024-02-18T20:31:20.383Z,97097.78
2024-02-18T20:33:48.714Z,97105.09
2024-02-18T20:36:16.356Z,97099.53
2024-02-18T20:38:45.933Z,97097.25
2024-02-18T20:41:13.025Z,97096.84
2024-02-18T20:43:39.889Z,97088.09
2024-02-18T20:46:06.779Z,97078.81
2024-02-18T20:48:33.739Z,97080.25
2024-02-18T20:51:01.609Z,97083.13
2024-02-18T20:53:29.382Z,97086.72
2024-02-18T20:55:56.096Z,97083.69
2024-02-18T20:58:24.223Z,97081.41
2024-02-18T21:00:51.277Z,97081.63
2024-02-18T21:03:20.689Z,97080.38
2024-02-18T21:05:47.793Z,97077.84
2024-02-18T21:08:18.085Z,97073.44
2024-02-18T21:10:45.871Z,97082.53
2024-02-18T21:13:17.086Z,97073.63
2024-02-18T21:15:43.914Z,97074.81
2024-02-18T21:18:10.778Z,97075.88
2024-02-18T21:20:41.648Z,97068.41
2024-02-18T21:23:11.699Z,97067.78
2024-02-18T21:25:39.894Z,97061.91
2024-02-18T21:28:07.239Z,97064.75
2024-02-18T21:30:37.680Z,97062.31
2024-02-18T21:33:04.801Z,97060.03
2024-02-18T21:35:31.479Z,97065.31
2024-02-18T21:37:58.185Z,97060.69
2024-02-18T21:40:24.901Z,97058.16
2024-02-18T21:42:51.758Z,97057.53
2024-02-18T21:45:18.501Z,97058.81
2024-02-18T21:47:45.234Z,97066.19
2024-02-18T21:50:16.051Z,97062.22
2024-02-18T21:52:43.893Z,97057.88
2024-02-18T21:55:10.733Z,97057.88
2024-02-18T21:57:37.634Z,97057.88
2024-02-18T22:00:07.368Z,97056.41
2024-02-18T22:02:34.615Z,97052.72
2024-02-18T22:05:01.827Z,97047.03
2024-02-18T22:07:30.951Z,97043.63
2024-02-18T22:09:58.895Z,97035.19
2024-02-18T22:12:26.591Z,97035.94
2024-02-18T22:14:53.349Z,97035.00
2024-02-18T22:17:20.352Z,97033.53
2024-02-18T22:19:47.497Z,97036.28
2024-02-18T22:22:17.376Z,97025.09
2024-02-18T22:24:46.389Z,97030.59
2024-02-18T22:27:18.842Z,97039.56
2024-02-18T22:29:45.773Z,97026.38
2024-02-18T22:32:13.500Z,97032.50
2024-02-18T22:34:40.486Z,97031.84
2024-02-18T22:37:10.718Z,97031.97
2024-02-18T22:39:41.026Z,97029.44
2024-02-18T22:42:07.927Z,97032.19
2024-02-18T22:44:39.574Z,97038.41
2024-02-18T22:47:07.552Z,97037.56
2024-02-18T22:49:39.934Z,97034.94
2024-02-18T22:52:06.911Z,97039.88
2024-02-18T22:54:35.679Z,97025.34
2024-02-18T22:57:03.549Z,97023.03
2024-02-18T22:59:34.346Z,97020.16
2024-02-18T23:02:03.521Z,97009.09
2024-02-18T23:04:30.256Z,97007.41
2024-02-18T23:06:57.038Z,97011.00
2024-02-18T23:09:23.738Z,97005.94
2024-02-18T23:11:51.722Z,97011.19
2024-02-18T23:14:18.395Z,97007.84
2024-02-18T23:16:45.142Z,97007.09
2024-02-18T23:19:13.747Z,97000.16
2024-02-18T23:21:40.452Z,97002.88
2024-02-18T23:24:07.252Z,96997.72
2024-02-18T23:26:33.860Z,96988.97
2024-02-18T23:29:00.726Z,96988.16
2024-02-18T23:31:27.527Z,96993.59
2024-02-18T23:33:54.817Z,96990.38
2024-02-18T23:36:21.705Z,96992.25
2024-02-18T23:38:49.042Z,96991.31
2024-02-18T23:41:15.796Z,96981.72
2024-02-18T23:43:45.097Z,96976.78
2024-02-18T23:46:11.867Z,96978.34
2024-02-18T23:48:40.145Z,96985.91
2024-02-18T23:51:08.004Z,96982.44
2024-02-18T23:53:34.957Z,96980.97
2024-02-18T23:56:02.625Z,96973.06
2024-02-18T23:58:30.340Z,96978.34
